Time;durP1;ratioP1;P1;durP2;ratioP2;P2;SDS_P1;SDS_P2;PMS_P1;PMS_P2;Temp;Humidity;BMP_temperature;BMP_pressure;BME280_temperature;BME280_humidity;BME280_pressure;Samples;Min_cycle;Max_cycle;Signal;HPM_P1;HPM_P2
2022/09/14 00:00:27;;;;;;;5.30;0.93;;;;;;;17.08;95.59;99506.75;6217279;23;20013;-84
2022/09/14 00:02:53;;;;;;;11.20;2.10;;;;;;;17.08;97.89;99498.59;6242509;23;20060;-84
2022/09/14 00:05:19;;;;;;;10.38;1.85;;;;;;;17.10;98.73;99496.44;6243125;23;20012;-82
2022/09/14 00:07:44;;;;;;;6.68;1.60;;;;;;;17.05;100.00;99502.72;6216901;23;19993;-83
2022/09/14 00:10:10;;;;;;;10.43;1.92;;;;;;;17.04;99.22;99511.13;6192732;23;20016;-82
2022/09/14 00:12:35;;;;;;;9.60;1.75;;;;;;;17.05;99.45;99520.91;6217165;23;20018;-82
2022/09/14 00:15:00;;;;;;;8.32;1.42;;;;;;;17.00;98.15;99521.72;6242472;23;20003;-84
2022/09/14 00:17:25;;;;;;;5.00;1.20;;;;;;;16.90;95.88;99506.25;6216933;23;20108;-83
2022/09/14 00:19:52;;;;;;;11.07;1.92;;;;;;;16.92;95.89;99508.72;6192111;23;20028;-84
2022/09/14 00:22:18;;;;;;;7.68;1.48;;;;;;;16.92;95.61;99516.84;6217336;23;20063;-85
2022/09/14 00:24:43;;;;;;;7.35;1.58;;;;;;;16.87;95.23;99531.25;6212008;23;20001;-84
2022/09/14 00:27:09;;;;;;;7.07;1.73;;;;;;;16.86;94.70;99526.09;6212795;23;20012;-84
2022/09/14 00:29:35;;;;;;;8.35;1.73;;;;;;;16.84;95.63;99507.31;6211736;23;20005;-83
2022/09/14 00:32:00;;;;;;;5.60;1.58;;;;;;;16.78;96.22;99516.56;6187091;23;19993;-84
2022/09/14 00:34:26;;;;;;;8.30;1.50;;;;;;;16.74;96.19;99520.88;6212697;23;20020;-82
2022/09/14 00:36:51;;;;;;;5.05;1.30;;;;;;;16.67;95.74;99513.00;6213104;23;20001;-84
2022/09/14 00:39:19;;;;;;;9.85;1.70;;;;;;;16.68;96.71;99524.69;6211322;23;20005;-84
2022/09/14 00:41:47;;;;;;;8.93;1.80;;;;;;;16.53;95.91;99502.97;6211990;23;20048;-84
2022/09/14 00:44:12;;;;;;;7.70;1.65;;;;;;;16.61;96.01;99507.84;6211525;23;20040;-84
2022/09/14 00:46:43;;;;;;;11.98;2.20;;;;;;;16.57;95.59;99514.91;6212627;23;20009;-84
2022/09/14 00:49:29;;;;;;;5.45;1.38;;;;;;;16.54;95.41;99508.09;6211816;23;19997;-83
2022/09/14 00:52:09;;;;;;;7.05;1.48;;;;;;;16.52;95.34;99521.13;6212447;23;20020;-84
2022/09/14 00:54:50;;;;;;;7.72;1.58;;;;;;;16.38;95.99;99499.13;6212038;23;20001;-83
2022/09/14 00:57:18;;;;;;;8.50;1.65;;;;;;;16.44;96.22;99524.38;6212210;23;20016;-82
2022/09/14 00:59:46;;;;;;;9.48;1.70;;;;;;;16.30;95.23;99493.41;6212629;23;19997;-83
2022/09/14 01:02:15;;;;;;;13.05;1.77;;;;;;;16.38;97.46;99501.84;6212014;23;20005;-84
2022/09/14 01:04:42;;;;;;;6.65;1.50;;;;;;;16.33;96.32;99506.47;6211576;23;20037;-83
2022/09/14 01:07:42;;;;;;;13.63;1.85;;;;;;;16.35;97.41;99510.50;6211682;23;19997;-83
2022/09/14 01:10:27;;;;;;;7.45;1.33;;;;;;;16.33;95.95;99501.84;6211934;23;20021;-84
2022/09/14 01:13:14;;;;;;;7.25;1.48;;;;;;;16.37;97.65;99512.97;6211350;23;20005;-83
2022/09/14 01:15:44;;;;;;;7.78;1.60;;;;;;;16.32;97.35;99511.03;6212172;23;19997;-83
2022/09/14 01:18:26;;;;;;;8.32;1.40;;;;;;;16.31;97.32;99505.91;6211795;23;20019;-84
2022/09/14 01:21:18;;;;;;;5.07;1.17;;;;;;;16.25;96.79;99475.22;6211477;23;20053;-84
2022/09/14 01:23:46;;;;;;;8.63;1.25;;;;;;;16.27;95.71;99511.06;6210571;23;20012;-83
2022/09/14 01:26:17;;;;;;;8.40;1.33;;;;;;;16.31;96.31;99504.00;6212292;23;20052;-83
2022/09/14 01:29:10;;;;;;;7.82;1.35;;;;;;;16.21;95.79;99498.56;6212018;23;20031;-84
2022/09/14 01:32:12;;;;;;;9.85;1.60;;;;;;;16.22;96.29;99502.88;6158501;23;20044;-84
2022/09/14 01:35:01;;;;;;;10.55;1.65;;;;;;;16.29;97.87;99511.63;6209659;23;20008;-84
2022/09/14 01:37:39;;;;;;;5.50;1.48;;;;;;;15.96;99.58;99467.56;6211789;23;19992;-84
2022/09/14 01:40:15;;;;;;;7.95;1.30;;;;;;;16.09;98.98;99487.13;6211656;23;20021;-83
2022/09/14 01:42:44;;;;;;;7.20;1.70;;;;;;;16.18;99.03;99513.47;6212686;23;20004;-84
2022/09/14 01:45:15;;;;;;;8.73;1.50;;;;;;;16.13;99.43;99510.75;6212982;23;20013;-83
2022/09/14 01:47:47;;;;;;;7.95;1.20;;;;;;;16.14;98.22;99504.22;6213607;23;20005;-84
2022/09/14 01:50:19;;;;;;;8.23;1.30;;;;;;;16.16;99.42;99510.22;6213614;23;20035;-84
2022/09/14 01:52:53;;;;;;;9.60;1.55;;;;;;;16.06;99.31;99499.34;6214776;23;19989;-85
2022/09/14 01:55:30;;;;;;;9.75;1.40;;;;;;;15.97;99.03;99485.47;6214051;23;19996;-84
2022/09/14 01:58:09;;;;;;;10.18;1.40;;;;;;;16.09;98.75;99506.09;6213705;23;20019;-85
2022/09/14 02:00:40;;;;;;;9.25;1.35;;;;;;;16.00;97.92;99499.59;6213198;23;19989;-82
2022/09/14 02:03:16;;;;;;;10.00;1.65;;;;;;;16.02;98.75;99503.66;6214641;23;19993;-84
2022/09/14 02:05:59;;;;;;;7.35;1.35;;;;;;;16.07;97.98;99508.28;6214312;23;20000;-83
2022/09/14 02:08:28;;;;;;;8.75;1.48;;;;;;;15.89;98.72;99480.56;6212589;23;19989;-84
2022/09/14 02:10:53;;;;;;;13.55;1.70;;;;;;;16.14;98.40;99523.22;6213016;23;20017;-84
2022/09/14 02:13:19;;;;;;;7.57;1.20;;;;;;;16.11;98.38;99520.22;6213295;23;20031;-84
2022/09/14 02:15:44;;;;;;;7.13;1.10;;;;;;;15.96;99.20;99486.56;6214084;23;19993;-84
2022/09/14 02:18:09;;;;;;;4.88;1.10;;;;;;;16.09;98.68;99508.81;6188792;23;20023;-84
2022/09/14 02:20:46;;;;;;;8.63;1.58;;;;;;;16.10;98.36;99505.84;6213694;23;20123;-83
2022/09/14 02:23:11;;;;;;;7.38;1.70;;;;;;;16.01;98.81;99493.88;6213756;23;20056;-83
2022/09/14 02:25:39;;;;;;;7.07;1.25;;;;;;;16.05;96.68;99513.97;6212079;23;20005;-84
2022/09/14 02:28:05;;;;;;;8.82;1.40;;;;;;;16.06;95.79;99506.63;6213762;23;20281;-83
2022/09/14 02:30:45;;;;;;;7.47;1.35;;;;;;;15.99;97.18;99479.75;6212903;23;20032;-83
2022/09/14 02:33:39;;;;;;;10.27;1.55;;;;;;;16.11;97.47;99509.38;6213456;23;20008;-83
2022/09/14 02:36:14;;;;;;;5.32;1.48;;;;;;;16.03;97.83;99515.34;6212965;23;19985;-84
2022/09/14 02:38:50;;;;;;;9.90;1.50;;;;;;;15.85;97.73;99478.63;6212810;23;19997;-83
2022/09/14 02:42:08;;;;;;;9.82;1.65;;;;;;;15.98;97.40;99508.78;6213064;23;20016;-83
2022/09/14 02:44:56;;;;;;;6.50;1.10;;;;;;;15.88;95.92;99508.75;6190179;23;20040;-84
2022/09/14 02:47:48;;;;;;;6.97;1.40;;;;;;;16.04;95.98;99514.25;6212754;23;20013;-83
2022/09/14 02:50:28;;;;;;;8.32;1.23;;;;;;;15.99;95.90;99515.03;6213951;23;20005;-84
2022/09/14 02:53:28;;;;;;;9.15;1.55;;;;;;;16.03;96.95;99510.72;6213822;23;20013;-82
2022/09/14 02:56:00;;;;;;;5.93;1.20;;;;;;;15.89;97.42;99491.41;6213339;23;20051;-84
2022/09/14 02:58:34;;;;;;;10.35;1.42;;;;;;;16.00;96.83;99524.00;6213771;23;20012;-84
2022/09/14 03:00:59;;;;;;;7.27;1.23;;;;;;;16.02;98.32;99509.06;6213314;23;20016;-84
2022/09/14 03:03:25;;;;;;;5.15;1.00;;;;;;;15.95;98.54;99505.78;6213396;23;20235;-83
2022/09/14 03:05:50;;;;;;;7.15;1.10;;;;;;;16.00;98.64;99503.13;6212727;23;20033;-84
2022/09/14 03:08:15;;;;;;;6.57;1.17;;;;;;;15.96;99.04;99508.25;6187588;23;20012;-83
2022/09/14 03:10:43;;;;;;;8.73;1.60;;;;;;;15.96;100.00;99489.28;6212897;23;19997;-84
2022/09/14 03:13:10;;;;;;;9.88;1.73;;;;;;;15.93;100.00;99487.09;6213846;23;19993;-83
2022/09/14 03:15:36;;;;;;;6.90;1.38;;;;;;;15.96;99.75;99502.84;6213419;23;20108;-84
2022/09/14 03:18:01;;;;;;;7.38;1.10;;;;;;;15.94;100.00;99513.13;6213528;23;20001;-84
2022/09/14 03:20:30;;;;;;;7.43;1.30;;;;;;;15.93;100.00;99511.50;6212516;23;20013;-83
2022/09/14 03:22:57;;;;;;;7.13;1.20;;;;;;;15.93;100.00;99503.38;6213815;23;19993;-84
2022/09/14 03:25:23;;;;;;;10.88;1.27;;;;;;;15.90;100.00;99520.16;6212719;23;20020;-84
2022/09/14 03:27:54;;;;;;;7.72;1.05;;;;;;;15.89;99.49;99513.13;6212374;23;20064;-83
2022/09/14 03:30:20;;;;;;;11.93;1.70;;;;;;;15.86;100.00;99512.81;6212284;23;19993;-83
2022/09/14 03:32:46;;;;;;;8.07;1.33;;;;;;;15.80;99.75;99501.16;6212368;23;20024;-83
2022/09/14 03:35:13;;;;;;;5.32;0.70;;;;;;;15.82;98.66;99498.97;6212473;22;20013;-84
2022/09/14 03:37:40;;;;;;;8.50;1.48;;;;;;;15.86;98.69;99508.22;6211532;23;20012;-83
2022/09/14 03:40:08;;;;;;;7.70;1.88;;;;;;;15.82;99.09;99511.72;6211298;23;20013;-83
2022/09/14 03:42:33;;;;;;;7.22;1.25;;;;;;;15.80;98.60;99505.75;6211858;23;20000;-84
2022/09/14 03:44:59;;;;;;;5.82;1.00;;;;;;;15.87;100.00;99512.56;6211336;23;20020;-83
2022/09/14 03:47:25;;;;;;;5.90;1.15;;;;;;;15.78;100.00;99513.34;6211484;23;20036;-84
2022/09/14 03:49:50;;;;;;;5.80;1.35;;;;;;;15.76;99.71;99502.75;6212128;23;20024;-82
2022/09/14 03:52:15;;;;;;;8.95;1.48;;;;;;;15.81;99.60;99510.09;6211868;23;20015;-83
2022/09/14 03:54:41;;;;;;;6.25;0.93;;;;;;;15.74;99.88;99507.63;6211943;23;20005;-84
2022/09/14 03:57:07;;;;;;;9.32;1.10;;;;;;;15.73;99.79;99500.59;6211661;23;20001;-84
2022/09/14 03:59:33;;;;;;;7.70;1.05;;;;;;;15.75;100.00;99506.53;6212695;23;20011;-83
2022/09/14 04:02:00;;;;;;;8.95;1.10;;;;;;;15.65;100.00;99487.47;6210373;23;20095;-83
2022/09/14 04:04:26;;;;;;;10.07;1.30;;;;;;;15.77;100.00;99500.88;6211775;23;19993;-83
2022/09/14 04:06:51;;;;;;;7.25;1.17;;;;;;;15.74;99.77;99504.91;6212436;23;20076;-82
2022/09/14 04:09:18;;;;;;;5.25;1.00;;;;;;;15.71;98.89;99505.44;6186688;23;20012;-85
2022/09/14 04:11:44;;;;;;;5.82;1.15;;;;;;;15.75;98.61;99506.53;6207150;23;20012;-80
2022/09/14 04:14:10;;;;;;;7.45;1.30;;;;;;;15.63;98.46;99492.34;6200826;23;20005;-83
2022/09/14 04:16:36;;;;;;;4.75;1.25;;;;;;;15.76;98.97;99507.34;6210881;23;20012;-82
2022/09/14 04:19:02;;;;;;;8.18;1.20;;;;;;;15.71;99.75;99508.16;6209483;23;20049;-82
2022/09/14 04:21:27;;;;;;;10.70;1.13;;;;;;;15.63;99.27;99503.19;6212372;23;20001;-81
2022/09/14 04:23:57;;;;;;;7.07;1.23;;;;;;;15.59;99.48;99483.91;6212916;23;20021;-81
2022/09/14 04:26:25;;;;;;;6.95;1.02;;;;;;;15.71;99.38;99506.25;6242053;23;20004;-83
2022/09/14 04:28:50;;;;;;;3.55;0.60;;;;;;;15.73;98.89;99508.72;6240121;23;20032;-82
2022/09/14 04:31:15;;;;;;;6.65;0.82;;;;;;;15.70;99.38;99510.06;6242905;23;20036;-84
2022/09/14 04:33:42;;;;;;;6.30;1.00;;;;;;;14.24;99.65;99286.81;6183698;23;20084;-81
2022/09/14 04:41:20;;;;;;;8.38;1.27;;;;;;;15.23;98.99;99428.72;6201791;23;20004;-82
2022/09/14 04:43:48;;;;;;;6.38;1.08;;;;;;;14.48;99.57;99325.09;6215389;23;20013;-82
2022/09/14 04:46:23;;;;;;;6.53;1.00;;;;;;;15.74;99.14;99513.06;6241678;23;20013;-81
2022/09/14 04:48:49;;;;;;;3.58;1.10;;;;;;;14.80;100.00;99371.06;6215353;23;20008;-82
2022/09/14 04:51:17;;;;;;;9.98;1.52;;;;;;;14.53;98.81;99335.97;6215071;23;19997;-83
2022/09/14 04:53:45;;;;;;;5.97;1.10;;;;;;;15.42;97.73;99459.72;6239586;23;19989;-81
2022/09/14 04:56:12;;;;;;;5.85;1.00;;;;;;;15.16;95.84;99369.34;6210785;23;20085;-83
2022/09/14 04:58:42;;;;;;;9.02;0.90;;;;;;;15.14;94.66;99357.19;6207527;23;20009;-81
2022/09/14 05:01:17;;;;;;;5.22;1.00;;;;;;;15.49;93.42;99387.09;6178503;23;19993;-82
2022/09/14 05:03:43;;;;;;;5.03;0.80;;;;;;;15.10;90.60;99288.31;6181420;23;19995;-82
2022/09/14 05:06:24;;;;;;;4.28;1.10;;;;;;;16.63;89.61;99514.63;6183192;23;20053;-83
2022/09/14 05:08:51;;;;;;;4.43;0.80;;;;;;;16.16;89.40;99428.00;6183144;23;20032;-82
2022/09/14 05:11:19;;;;;;;8.02;0.80;;;;;;;15.13;90.58;99294.03;6209622;23;20023;-81
2022/09/14 05:13:45;;;;;;;3.35;0.90;;;;;;;16.03;89.66;99398.66;6184241;23;20051;-82
2022/09/14 05:16:22;;;;;;;6.63;1.00;;;;;;;15.32;86.16;99259.13;6208416;23;20025;-80
2022/09/14 05:18:49;;;;;;;3.95;0.90;;;;;;;14.98;88.30;99265.00;6186429;23;20001;-84
2022/09/14 05:26:18;;;;;;;6.18;0.90;;;;;;;15.58;92.08;99414.53;6183618;23;20064;-83
2022/09/14 05:28:50;;;;;;;6.43;0.85;;;;;;;15.70;90.77;99419.75;6157894;23;20021;-83
2022/09/14 05:31:16;;;;;;;3.95;0.70;;;;;;;15.61;90.31;99414.00;6183367;23;20044;-83
2022/09/14 05:33:42;;;;;;;3.92;0.70;;;;;;;14.72;90.06;99285.75;6182622;23;20010;-83
2022/09/14 05:38:43;;;;;;;7.40;0.80;;;;;;;15.38;91.74;99355.63;6207513;23;20021;-82
2022/09/14 05:43:46;;;;;;;6.45;1.23;;;;;;;16.37;90.74;99502.13;6241961;23;20008;-81
2022/09/14 05:46:14;;;;;;;4.50;0.85;;;;;;;14.80;91.84;99284.41;6218279;23;20001;-82
2022/09/14 05:51:18;;;;;;;8.88;0.75;;;;;;;14.64;93.07;99264.59;6207040;23;20289;-83
2022/09/14 05:53:49;;;;;;;7.07;0.90;;;;;;;14.90;92.21;99302.59;6213202;23;20004;-83
2022/09/14 05:56:15;;;;;;;6.15;1.10;;;;;;;14.87;91.44;99295.03;6214115;23;19992;-84
2022/09/14 05:58:41;;;;;;;4.22;0.80;;;;;;;16.30;91.49;99512.41;6188272;23;20012;-83
2022/09/14 06:01:07;;;;;;;4.40;0.80;;;;;;;16.30;91.73;99496.94;6213444;23;19985;-84
2022/09/14 06:03:32;;;;;;;3.15;0.90;;;;;;;16.45;91.12;99507.81;6213640;23;20025;-84
2022/09/14 06:05:57;;;;;;;3.25;0.60;;;;;;;16.49;89.31;99512.69;6163026;23;20234;-83
2022/09/14 06:08:23;;;;;;;4.15;0.70;;;;;;;16.53;88.76;99511.09;6212924;23;20024;-84
2022/09/14 06:10:48;;;;;;;4.68;0.73;;;;;;;16.55;87.75;99492.63;6162543;23;20013;-83
2022/09/14 06:13:14;;;;;;;3.75;0.93;;;;;;;16.64;87.53;99502.69;6213751;23;20005;-83
2022/09/14 06:15:39;;;;;;;4.10;0.70;;;;;;;16.71;87.69;99513.28;6188100;23;20020;-84
2022/09/14 06:18:05;;;;;;;4.13;0.75;;;;;;;16.76;87.39;99510.59;6214043;23;19989;-83
2022/09/14 06:20:30;;;;;;;3.53;0.75;;;;;;;16.83;87.48;99502.19;6163244;23;20004;-83
2022/09/14 06:22:55;;;;;;;2.92;0.88;;;;;;;16.82;86.89;99520.38;6188016;23;20001;-83
2022/09/14 06:25:21;;;;;;;4.80;0.73;;;;;;;16.80;86.64;99514.41;6187507;23;20061;-84
2022/09/14 06:27:46;;;;;;;1.80;0.40;;;;;;;16.93;85.73;99509.50;6186446;23;20005;-82
2022/09/14 06:30:12;;;;;;;4.85;0.70;;;;;;;16.91;84.45;99502.44;6160380;23;19993;-83
2022/09/14 06:32:37;;;;;;;5.20;0.95;;;;;;;16.97;84.47;99505.16;6213098;23;20052;-83
2022/09/14 06:35:03;;;;;;;7.00;0.85;;;;;;;16.99;83.50;99506.53;6212993;23;20009;-83
2022/09/14 06:37:28;;;;;;;3.83;0.70;;;;;;;17.00;83.69;99504.63;6188348;23;20065;-82
2022/09/14 06:39:53;;;;;;;5.95;1.02;;;;;;;17.05;85.59;99510.88;6187957;23;20012;-83
2022/09/14 06:42:19;;;;;;;4.38;0.80;;;;;;;17.13;85.79;99504.88;6187960;23;20080;-83
2022/09/14 06:44:46;;;;;;;6.18;1.10;;;;;;;17.11;86.29;99489.91;6214181;23;20009;-83
2022/09/14 06:47:11;;;;;;;8.50;1.02;;;;;;;17.11;88.72;99501.59;6188151;23;20013;-82
2022/09/14 06:49:36;;;;;;;10.10;0.95;;;;;;;17.00;90.06;99504.63;6213536;23;20005;-82
2022/09/14 06:52:02;;;;;;;8.40;1.65;;;;;;;16.91;91.65;99517.91;6188419;23;19993;-84
2022/09/14 06:54:27;;;;;;;7.45;1.17;;;;;;;16.80;92.79;99527.97;6213324;23;20001;-84
2022/09/14 06:56:53;;;;;;;9.18;1.05;;;;;;;16.85;93.15;99529.88;6187902;23;20024;-83
2022/09/14 06:59:19;;;;;;;6.63;1.10;;;;;;;16.93;93.15;99529.34;6213482;23;20013;-83
2022/09/14 07:01:45;;;;;;;7.60;1.05;;;;;;;16.78;92.14;99473.09;6188012;23;19997;-84
2022/09/14 07:04:11;;;;;;;5.53;1.00;;;;;;;17.25;91.47;99523.63;6213340;23;20007;-83
2022/09/14 07:06:43;;;;;;;5.65;0.98;;;;;;;17.30;91.36;99529.03;6213150;23;20342;-83
2022/09/14 07:09:09;;;;;;;6.85;1.10;;;;;;;17.26;91.51;99524.44;6187962;23;19997;-83
2022/09/14 07:11:35;;;;;;;7.70;1.23;;;;;;;17.34;90.99;99529.28;6187475;23;20024;-83
2022/09/14 07:14:01;;;;;;;2.55;0.95;;;;;;;17.32;90.69;99518.69;6163211;23;20017;-83
2022/09/14 07:16:27;;;;;;;4.53;1.13;;;;;;;17.45;90.73;99528.19;6213816;23;20013;-84
2022/09/14 07:18:58;;;;;;;8.10;1.10;;;;;;;17.52;89.05;99514.31;6213883;23;20001;-82
2022/09/14 07:21:25;;;;;;;5.70;0.80;;;;;;;17.53;89.02;99518.66;6187149;23;19997;-81
2022/09/14 07:23:50;;;;;;;6.55;0.90;;;;;;;17.42;88.52;99498.00;6213523;23;20015;-83
2022/09/14 07:26:22;;;;;;;4.28;0.77;;;;;;;17.45;89.44;99527.34;6186828;23;20005;-83
2022/09/14 07:28:50;;;;;;;7.45;0.93;;;;;;;17.27;89.43;99535.00;6212978;23;20013;-84
2022/09/14 07:31:20;;;;;;;7.35;1.00;;;;;;;17.44;90.41;99533.91;6212735;23;19989;-83
2022/09/14 07:33:46;;;;;;;5.03;1.10;;;;;;;17.61;90.79;99540.66;6187921;23;20001;-83
2022/09/14 07:36:12;;;;;;;6.13;1.25;;;;;;;17.55;89.88;99539.03;6213151;23;20017;-83
2022/09/14 07:38:38;;;;;;;6.85;1.08;;;;;;;17.37;91.58;99521.41;6188291;23;19997;-83
2022/09/14 07:41:04;;;;;;;7.00;1.30;;;;;;;17.13;91.36;99514.94;6162999;23;19993;-82
2022/09/14 07:43:31;;;;;;;5.53;0.98;;;;;;;17.16;90.92;99530.69;6187791;23;19992;-83
2022/09/14 07:45:56;;;;;;;5.63;1.00;;;;;;;17.11;90.19;99533.41;6187195;23;20013;-83
2022/09/14 07:48:22;;;;;;;5.13;0.90;;;;;;;17.05;89.22;99534.50;6162800;23;20000;-83
2022/09/14 07:50:57;;;;;;;5.93;0.80;;;;;;;16.99;88.54;99503.00;6212891;23;20032;-83
2022/09/14 07:53:22;;;;;;;2.88;0.60;;;;;;;16.99;87.62;99511.94;6212855;23;20001;-83
2022/09/14 07:55:48;;;;;;;6.28;0.82;;;;;;;17.33;85.56;99523.03;6187894;23;19993;-84
2022/09/14 07:58:13;;;;;;;7.20;0.90;;;;;;;17.26;84.52;99510.84;6187174;23;19997;-83
2022/09/14 08:00:38;;;;;;;3.65;0.85;;;;;;;17.31;84.81;99527.94;6212652;23;19989;-83
2022/09/14 08:03:04;;;;;;;4.88;0.80;;;;;;;17.31;85.35;99538.00;6212987;23;20048;-83
2022/09/14 08:05:29;;;;;;;8.13;1.50;;;;;;;17.47;86.72;99527.91;6212544;23;20060;-83
2022/09/14 08:07:55;;;;;;;2.47;0.75;;;;;;;17.36;85.92;99498.03;6187410;23;19997;-83
2022/09/14 08:10:21;;;;;;;6.93;1.30;;;;;;;17.53;83.36;99524.91;6212280;23;20077;-83
2022/09/14 08:12:53;;;;;;;3.67;1.00;;;;;;;17.56;82.67;99523.53;6211501;23;20009;-83
2022/09/14 08:15:21;;;;;;;5.40;0.73;;;;;;;17.50;82.27;99533.59;6187202;23;19985;-83
2022/09/14 08:17:46;;;;;;;3.83;0.60;;;;;;;17.31;80.68;99519.78;6187658;23;20124;-83
2022/09/14 08:20:12;;;;;;;4.60;0.75;;;;;;;17.31;80.62;99522.50;6187558;23;20001;-84
2022/09/14 08:22:38;;;;;;;4.10;0.88;;;;;;;17.35;80.81;99523.59;6213250;23;20085;-83
2022/09/14 08:27:37;;;;;;;2.80;0.60;;;;;;;16.89;83.60;99444.84;6183336;23;20069;-83
2022/09/14 08:30:03;;;;;;;5.05;0.70;;;;;;;16.23;82.35;99322.69;6194176;23;20017;-82
2022/09/14 08:32:29;;;;;;;3.88;0.60;;;;;;;16.35;82.52;99344.09;6217329;23;20047;-82
2022/09/14 08:34:54;;;;;;;6.28;0.73;;;;;;;16.18;81.47;99315.34;6216347;23;19993;-83
2022/09/14 08:37:20;;;;;;;4.40;0.60;;;;;;;17.60;82.42;99552.63;6217296;23;19999;-83
2022/09/14 08:39:46;;;;;;;1.25;0.40;;;;;;;16.28;80.30;99317.25;6216740;23;20013;-83
2022/09/14 08:42:18;;;;;;;4.30;0.80;;;;;;;17.65;79.84;99532.75;6194863;23;20009;-80
2022/09/14 08:44:55;;;;;;;4.75;0.70;;;;;;;16.28;80.71;99336.25;6183801;23;19996;-83
2022/09/14 08:47:38;;;;;;;4.43;0.55;;;;;;;16.82;80.53;99402.72;6186061;23;20000;-81
2022/09/14 08:50:20;;;;;;;4.68;0.70;;;;;;;16.43;78.82;99344.38;6178658;23;20024;-82
2022/09/14 08:52:46;;;;;;;1.85;0.60;;;;;;;17.63;79.55;99532.22;6157193;23;20017;-83
2022/09/14 08:55:49;;;;;;;3.33;0.85;;;;;;;17.56;80.84;99531.69;6182422;23;19997;-82
2022/09/14 08:58:44;;;;;;;6.72;0.90;;;;;;;16.53;83.33;99383.47;6180386;23;20028;-82
2022/09/14 09:01:46;;;;;;;4.40;1.33;;;;;;;17.61;86.18;99539.81;6181861;23;20013;-82
2022/09/14 09:04:14;;;;;;;6.18;0.93;;;;;;;17.64;86.91;99539.28;6183570;23;20020;-83
2022/09/14 09:06:53;;;;;;;6.97;1.10;;;;;;;17.44;86.22;99468.63;6156802;23;20056;-83
2022/09/14 09:09:34;;;;;;;4.50;1.35;;;;;;;16.85;84.73;99351.41;6158003;23;19997;-83
2022/09/14 09:12:00;;;;;;;7.00;1.02;;;;;;;16.51;85.25;99315.03;6182685;23;20069;-82
2022/09/14 09:14:36;;;;;;;5.97;1.52;;;;;;;17.32;85.38;99431.69;6156341;23;19992;-82
2022/09/14 09:17:14;;;;;;;8.38;1.20;;;;;;;17.35;84.29;99444.75;6157289;23;20017;-81
2022/09/14 09:20:11;;;;;;;6.65;1.10;;;;;;;18.12;84.81;99544.31;6182892;23;20016;-82
2022/09/14 09:22:54;;;;;;;7.07;1.10;;;;;;;16.85;85.14;99375.84;6157374;23;20033;-81
2022/09/14 09:25:26;;;;;;;7.30;1.45;;;;;;;16.42;86.02;99314.78;6152708;23;20001;-81
2022/09/14 09:28:02;;;;;;;7.10;1.08;;;;;;;17.04;85.40;99408.66;6141255;23;20002;-80
2022/09/14 09:30:28;;;;;;;6.70;0.93;;;;;;;16.91;85.81;99415.47;6143878;23;20040;-80
2022/09/14 09:32:55;;;;;;;6.45;1.00;;;;;;;17.79;85.72;99542.00;6127295;23;20044;-82
2022/09/14 09:35:23;;;;;;;7.28;1.13;;;;;;;17.88;85.63;99544.13;6127166;23;20020;-82
2022/09/14 09:37:48;;;;;;;10.50;1.83;;;;;;;17.86;84.01;99554.50;6179242;23;19989;-82
2022/09/14 09:40:30;;;;;;;8.70;1.48;;;;;;;17.80;84.09;99523.75;6182185;23;20041;-84
2022/09/14 09:43:06;;;;;;;7.78;1.20;;;;;;;17.99;83.25;99548.44;6183632;23;19990;-84
2022/09/14 09:45:50;;;;;;;6.65;0.90;;;;;;;17.83;83.69;99547.69;6183765;23;20016;-82
2022/09/14 09:48:21;;;;;;;4.95;1.00;;;;;;;17.74;85.33;99528.34;6182016;23;20004;-82
2022/09/14 09:51:03;;;;;;;6.90;1.35;;;;;;;18.05;84.67;99550.06;6180469;23;20010;-82
2022/09/14 09:53:31;;;;;;;7.25;0.88;;;;;;;17.89;84.47;99546.59;6181332;23;20052;-81
2022/09/14 09:55:57;;;;;;;8.43;1.10;;;;;;;16.67;83.56;99352.75;6225849;23;20031;-83
2022/09/14 09:58:37;;;;;;;6.75;1.02;;;;;;;16.96;83.69;99398.38;6216714;23;20036;-83
2022/09/14 10:01:06;;;;;;;4.25;0.80;;;;;;;17.06;83.34;99414.66;6217428;23;20004;-82
2022/09/14 10:03:39;;;;;;;8.50;1.10;;;;;;;17.64;82.00;99465.81;6217184;23;20019;-82
2022/09/14 10:06:10;;;;;;;7.07;1.30;;;;;;;17.33;81.96;99408.03;6218154;23;19993;-80
2022/09/14 10:08:41;;;;;;;7.60;1.10;;;;;;;17.80;81.34;99496.53;6243689;23;20000;-84
2022/09/14 10:11:36;;;;;;;2.53;0.70;;;;;;;16.64;82.03;99336.19;6244587;23;20004;-83
2022/09/14 10:14:19;;;;;;;6.57;1.50;;;;;;;16.45;80.60;99319.66;6244597;23;20000;-84
2022/09/14 10:16:44;;;;;;;10.30;1.35;;;;;;;17.83;81.86;99562.09;6192458;23;20082;-84
2022/09/14 10:26:55;;;;;;;5.93;1.00;;;;;;;16.33;81.95;99306.41;6210530;23;20025;-82
2022/09/14 10:39:55;;;;;;;6.20;1.45;;;;;;;16.37;82.37;99356.31;6218803;23;20028;-83
2022/09/14 10:45:17;;;;;;;3.85;0.65;;;;;;;16.30;80.09;99339.50;6208369;23;20094;-83
2022/09/14 10:48:08;;;;;;;4.95;0.70;;;;;;;16.27;81.60;99339.25;6243158;23;19999;-82
2022/09/14 10:50:43;;;;;;;6.07;1.15;;;;;;;17.73;82.02;99543.06;6210345;23;19993;-81
2022/09/14 10:53:15;;;;;;;6.10;1.15;;;;;;;17.76;80.47;99541.69;6243254;23;20000;-82
2022/09/14 10:55:58;;;;;;;2.38;0.65;;;;;;;17.94;79.36;99537.56;6242869;23;19997;-83
2022/09/14 10:58:44;;;;;;;4.43;0.70;;;;;;;18.01;78.77;99536.19;6243348;23;20008;-81
2022/09/14 11:01:12;;;;;;;3.30;0.88;;;;;;;17.87;78.54;99539.78;6242870;23;19991;-82
2022/09/14 11:03:58;;;;;;;4.80;0.77;;;;;;;17.88;78.78;99542.25;6241770;23;20023;-82
2022/09/14 11:06:23;;;;;;;3.03;0.80;;;;;;;18.03;79.58;99541.34;6242435;23;20031;-83
2022/09/14 11:09:19;;;;;;;5.03;0.75;;;;;;;18.07;77.97;99545.13;6242835;23;20009;-83
2022/09/14 11:12:23;;;;;;;6.88;0.90;;;;;;;18.23;77.70;99546.69;6230865;23;20017;-83
2022/09/14 11:15:17;;;;;;;2.45;0.60;;;;;;;18.25;78.44;99546.44;6197895;23;20072;-82
2022/09/14 11:18:04;;;;;;;2.88;0.70;;;;;;;18.40;77.47;99534.63;6239995;23;20060;-83
2022/09/14 11:20:43;;;;;;;5.65;1.13;;;;;;;18.35;77.81;99540.09;6242662;23;20000;-84
2022/09/14 11:23:29;;;;;;;6.90;1.02;;;;;;;18.10;78.06;99538.31;6243460;23;20012;-83
2022/09/14 11:26:15;;;;;;;4.38;0.82;;;;;;;18.13;77.32;99538.56;6243275;23;19984;-83
2022/09/14 11:29:39;;;;;;;3.75;0.80;;;;;;;18.08;80.28;99530.44;6242912;23;19996;-83
2022/09/14 11:32:12;;;;;;;6.88;1.65;;;;;;;17.83;80.17;99523.19;6108547;23;19998;-83
2022/09/14 11:34:40;;;;;;;6.22;0.90;;;;;;;17.84;80.83;99536.50;6228183;23;20020;-81
2022/09/14 11:37:12;;;;;;;3.03;0.73;;;;;;;17.92;80.66;99539.78;6241458;23;20012;-82
2022/09/14 11:39:46;;;;;;;5.90;0.80;;;;;;;17.69;79.61;99511.25;6241146;23;19996;-82
2022/09/14 11:42:26;;;;;;;8.77;0.93;;;;;;;17.77;79.09;99541.44;6215337;23;20009;-83
2022/09/14 11:45:06;;;;;;;12.45;0.90;;;;;;;17.53;79.72;99515.94;6209528;23;20028;-82
2022/09/14 11:47:42;;;;;;;9.02;1.35;;;;;;;17.61;81.97;99542.53;6210287;23;20024;-83
2022/09/14 11:50:26;;;;;;;6.15;1.15;;;;;;;17.59;81.90;99542.03;6211089;23;19997;-83
2022/09/14 11:53:11;;;;;;;8.48;1.20;;;;;;;17.66;81.47;99549.91;6212202;23;20016;-83
2022/09/14 11:55:40;;;;;;;5.90;1.00;;;;;;;17.73;80.66;99540.34;6205444;23;20028;-81
2022/09/14 11:58:10;;;;;;;7.18;0.88;;;;;;;17.53;80.18;99535.78;6210838;23;20016;-81
2022/09/14 12:00:58;;;;;;;6.43;1.25;;;;;;;17.57;80.21;99555.88;6210512;23;20004;-83
2022/09/14 12:03:44;;;;;;;5.32;1.20;;;;;;;17.74;79.31;99550.13;6209690;23;20103;-80
2022/09/14 12:06:28;;;;;;;6.10;1.10;;;;;;;17.67;78.70;99546.88;6212289;23;20024;-80
2022/09/14 12:08:54;;;;;;;7.43;1.17;;;;;;;17.72;78.82;99544.16;6211939;23;19993;-81
2022/09/14 12:11:29;;;;;;;6.43;1.45;;;;;;;17.91;78.53;99543.56;6209997;23;20049;-81
2022/09/14 12:14:28;;;;;;;6.30;1.42;;;;;;;17.85;77.83;99542.78;6206320;23;20001;-81
2022/09/14 12:17:21;;;;;;;8.10;1.15;;;;;;;17.58;78.20;99526.78;6207890;23;20012;-82
2022/09/14 12:19:48;;;;;;;5.88;1.20;;;;;;;17.57;78.64;99525.16;6195875;23;20009;-81
2022/09/14 12:22:36;;;;;;;5.55;0.90;;;;;;;17.90;76.93;99542.75;6208661;23;19992;-81
2022/09/14 12:25:15;;;;;;;5.93;1.33;;;;;;;17.82;75.82;99516.94;6208915;23;20024;-81
2022/09/14 12:27:41;;;;;;;7.75;1.23;;;;;;;17.86;76.17;99528.09;6207829;23;20488;-81
2022/09/14 12:30:52;;;;;;;6.60;1.13;;;;;;;17.72;76.02;99546.88;6207982;23;20048;-80
2022/09/14 12:33:32;;;;;;;7.32;0.90;;;;;;;17.63;74.73;99537.66;6203951;23;20008;-80
2022/09/14 12:36:10;;;;;;;6.85;1.13;;;;;;;17.72;74.71;99543.34;6210177;23;20005;-81